Time;durP1;ratioP1;P1;durP2;ratioP2;P2;SDS_P1;SDS_P2;PMS_P1;PMS_P2;Temp;Humidity;BMP_temperature;BMP_pressure;BME280_temperature;BME280_humidity;BME280_pressure;Samples;Min_cycle;Max_cycle;Signal;HPM_P1;HPM_P2
2023/01/24 00:18:06;;;;;;;;;;;;;;;0.88;100.00;100518.85;434500;1257;112408;-39
2023/01/24 00:28:12;;;;;;;;;;;;;;;0.90;100.00;100514.40;434384;1254;106832;-40
2023/01/24 00:38:17;;;;;;;;;;;;;;;0.92;100.00;100513.48;434467;1257;97963;-39
2023/01/24 00:48:23;;;;;;;;;;;;;;;0.94;100.00;100529.17;434469;1256;108571;-41
2023/01/24 00:58:29;;;;;;;;;;;;;;;0.90;100.00;100527.56;434368;1257;98519;-39
2023/01/24 01:08:35;;;;;;;;;;;;;;;0.87;100.00;100521.73;434510;1257;112058;-39
2023/01/24 01:18:40;;;;;;;;;;;;;;;0.86;100.00;100516.28;434349;1257;109650;-39
2023/01/24 01:28:46;;;;;;;;;;;;;;;0.86;100.00;100513.65;434482;1257;99289;-39
2023/01/24 01:38:52;;;;;;;;;;;;;;;0.87;100.00;100509.59;434452;1257;108215;-41
2023/01/24 01:59:10;;;;;;;;;;;;;;;0.89;100.00;100513.77;434400;1257;111807;-38
2023/01/24 02:09:17;;;;;;;;;;;;;;;0.91;100.00;100519.81;434361;1257;107959;-39
2023/01/24 02:19:23;;;;;;;;;;;;;;;0.91;100.00;100517.73;435775;1259;98843;-40
2023/01/24 02:29:29;;;;;;;;;;;;;;;0.91;100.00;100520.50;434346;1257;108306;-38
2023/01/24 02:39:40;;;;;;;;;;;;;;;0.93;100.00;100518.64;434349;1257;99281;-39
2023/01/24 02:49:45;;;;;;;;;;;;;;;0.93;100.00;100516.54;435366;1257;111125;-40
2023/01/24 02:59:50;;;;;;;;;;;;;;;0.92;100.00;100511.38;437720;1256;526639;-39
2023/01/24 03:09:56;;;;;;;;;;;;;;;0.93;100.00;100507.05;439033;1256;98731;-39
2023/01/24 03:40:50;;;;;;;;;;;;;;;0.99;100.00;100501.04;435521;1251;110852;-40
2023/01/24 04:01:18;;;;;;;;;;;;;;;1.02;100.00;100507.73;438307;1256;99201;-40
2023/01/24 04:11:24;;;;;;;;;;;;;;;1.01;100.00;100506.92;436144;1255;108685;-40
2023/01/24 04:21:29;;;;;;;;;;;;;;;0.98;100.00;100504.60;436556;1256;99244;-39
2023/01/24 04:31:35;;;;;;;;;;;;;;;0.94;100.00;100498.98;437942;1256;111314;-37
2023/01/24 04:41:41;;;;;;;;;;;;;;;0.93;100.00;100505.63;438925;1255;107148;-38
2023/01/24 04:51:47;;;;;;;;;;;;;;;0.95;100.00;100522.02;436646;1256;99230;-40
2023/01/24 05:01:53;;;;;;;;;;;;;;;0.95;100.00;100520.60;436262;1256;107479;-39
2023/01/24 05:11:58;;;;;;;;;;;;;;;0.89;100.00;100524.34;435244;1256;99380;-40
2023/01/24 05:22:04;;;;;;;;;;;;;;;0.88;100.00;100543.88;435060;1256;112907;-38
2023/01/24 05:32:09;;;;;;;;;;;;;;;0.85;100.00;100555.23;437448;1256;107595;-39
2023/01/24 05:42:15;;;;;;;;;;;;;;;0.88;100.00;100564.91;435226;1253;98000;-39
2023/01/24 06:02:28;;;;;;;;;;;;;;;0.86;100.00;100582.54;435184;1256;99148;-40
2023/01/24 06:12:33;;;;;;;;;;;;;;;0.85;100.00;100588.27;435225;1256;112163;-39
2023/01/24 06:22:37;;;;;;;;;;;;;;;0.83;100.00;100595.17;435316;1256;107783;-40
2023/01/24 06:32:53;;;;;;;;;;;;;;;0.84;100.00;100593.32;435171;1257;99224;-39
2023/01/24 06:43:00;;;;;;;;;;;;;;;0.86;100.00;100599.07;435220;1256;107427;-39
2023/01/24 06:53:07;;;;;;;;;;;;;;;0.86;100.00;100606.41;435343;1256;98847;-40
2023/01/24 07:03:13;;;;;;;;;;;;;;;0.88;100.00;100614.75;435243;1256;111645;-41
2023/01/24 07:13:19;;;;;;;;;;;;;;;0.93;100.00;100618.83;435226;1256;109247;-40
2023/01/24 07:23:27;;;;;;;;;;;;;;;0.91;100.00;100623.50;435218;1256;97990;-40
2023/01/24 07:33:33;;;;;;;;;;;;;;;0.98;100.00;100634.10;435333;1256;107220;-40
2023/01/24 07:43:38;;;;;;;;;;;;;;;0.99;100.00;100634.43;435187;1253;98843;-39
2023/01/24 07:53:44;;;;;;;;;;;;;;;1.00;100.00;100635.16;435281;1255;111722;-40
2023/01/24 08:24:00;;;;;;;;;;;;;;;1.14;100.00;100638.92;435165;1264;108530;-40
2023/01/24 08:34:05;;;;;;;;;;;;;;;1.20;100.00;100640.20;435274;1256;99227;-39
2023/01/24 08:44:11;;;;;;;;;;;;;;;1.23;100.00;100635.13;435222;1255;110105;-39
2023/01/24 08:54:16;;;;;;;;;;;;;;;1.28;100.00;100635.94;435209;1256;108161;-39
2023/01/24 09:04:22;;;;;;;;;;;;;;;1.31;100.00;100642.84;435054;1256;98526;-40
2023/01/24 09:14:26;;;;;;;;;;;;;;;1.42;100.00;100646.75;435050;1256;107817;-41
2023/01/24 09:24:31;;;;;;;;;;;;;;;1.47;100.00;100647.26;435440;1256;99122;-40
2023/01/24 09:34:37;;;;;;;;;;;;;;;1.50;100.00;100647.53;435204;1265;110837;-40
2023/01/24 09:44:42;;;;;;;;;;;;;;;1.63;100.00;100643.02;435300;1256;107339;-40
2023/01/24 09:54:52;;;;;;;;;;;;;;;1.75;100.00;100639.61;435198;1256;98011;-39
2023/01/24 10:04:57;;;;;;;;;;;;;;;1.90;100.00;100635.09;435204;1256;107956;-39
2023/01/24 10:15:04;;;;;;;;;;;;;;;2.08;100.00;100637.23;435357;1257;98320;-40
2023/01/24 10:25:13;;;;;;;;;;;;;;;2.19;100.00;100636.75;435221;1264;112882;-40
2023/01/24 10:35:23;;;;;;;;;;;;;;;2.18;100.00;100625.48;435177;1256;108176;-39
2023/01/24 10:55:37;;;;;;;;;;;;;;;2.26;100.00;100601.84;435259;1256;107583;-39
2023/01/24 11:05:43;;;;;;;;;;;;;;;2.30;100.00;100586.17;435183;1256;99227;-39
2023/01/24 11:15:50;;;;;;;;;;;;;;;2.40;100.00;100578.73;435178;1264;112400;-39
2023/01/24 11:25:57;;;;;;;;;;;;;;;2.42;100.00;100573.80;435231;1254;108630;-39
2023/01/24 12:16:27;;;;;;;;;;;;;;;2.44;100.00;100574.58;435373;1264;107290;-39
2023/01/24 12:26:36;;;;;;;;;;;;;;;2.43;100.00;100584.36;435420;1257;97996;-40
2023/01/24 12:36:40;;;;;;;;;;;;;;;2.31;100.00;100592.33;435190;1257;108964;-40
2023/01/24 12:46:45;;;;;;;;;;;;;;;2.26;100.00;100597.50;435142;1257;98096;-41
2023/01/24 12:56:51;;;;;;;;;;;;;;;2.22;100.00;100601.11;435519;1257;112495;-39
2023/01/24 13:06:57;;;;;;;;;;;;;;;2.21;100.00;100602.96;435201;1257;106712;-39
2023/01/24 13:17:13;;;;;;;;;;;;;;;2.18;100.00;100608.29;435186;1258;99260;-41
2023/01/24 13:27:32;;;;;;;;;;;;;;;2.15;100.00;100607.83;435179;1257;107484;-41
2023/01/24 13:37:38;;;;;;;;;;;;;;;2.09;100.00;100600.25;435148;1266;99253;-39
2023/01/24 13:47:43;;;;;;;;;;;;;;;1.98;100.00;100603.80;435419;1256;113701;-42
2023/01/24 13:57:49;;;;;;;;;;;;;;;1.92;100.00;100601.70;435202;1257;108193;-40
2023/01/24 14:07:55;;;;;;;;;;;;;;;1.87;100.00;100595.48;435256;1254;98713;-40
2023/01/24 14:18:01;;;;;;;;;;;;;;;1.84;100.00;100599.39;435088;1257;108036;-41
2023/01/24 14:28:05;;;;;;;;;;;;;;;1.84;100.00;100600.77;435142;1257;98262;-40
2023/01/24 14:38:13;;;;;;;;;;;;;;;1.82;100.00;100613.77;435173;1256;111240;-40
2023/01/24 14:48:22;;;;;;;;;;;;;;;1.81;100.00;100612.34;435106;1257;108652;-40
2023/01/24 14:58:30;;;;;;;;;;;;;;;1.81;100.00;100612.81;434919;1254;387773;-40
2023/01/24 15:08:35;;;;;;;;;;;;;;;1.85;100.00;100603.45;435158;1257;107648;-40
2023/01/24 15:28:46;;;;;;;;;;;;;;;1.91;100.00;100612.65;435203;1254;113498;-40
2023/01/24 15:48:56;;;;;;;;;;;;;;;1.94;100.00;100634.09;435118;1252;97981;-40
2023/01/24 15:59:02;;;;;;;;;;;;;;;1.98;100.00;100626.92;435186;1256;108160;-41
2023/01/24 16:09:08;;;;;;;;;;;;;;;2.04;100.00;100603.98;435278;1258;99272;-39
2023/01/24 16:29:21;;;;;;;;;;;;;;;2.14;100.00;100584.92;435087;1257;108636;-40
2023/01/24 16:39:27;;;;;;;;;;;;;;;2.20;100.00;100593.84;435212;1254;99200;-39
2023/01/24 16:49:33;;;;;;;;;;;;;;;2.22;100.00;100599.19;435263;1256;107865;-39
2023/01/24 16:59:39;;;;;;;;;;;;;;;2.15;100.00;100610.74;435289;1253;99250;-40
2023/01/24 17:09:45;;;;;;;;;;;;;;;2.15;100.00;100611.84;435312;1256;110765;-39
2023/01/24 17:19:51;;;;;;;;;;;;;;;2.23;100.00;100609.08;435225;1257;107315;-39
2023/01/24 17:29:56;;;;;;;;;;;;;;;2.30;100.00;100617.48;435274;1267;99327;-39
2023/01/24 17:40:02;;;;;;;;;;;;;;;2.31;100.00;100615.84;435196;1256;107283;-38
2023/01/24 17:50:09;;;;;;;;;;;;;;;2.27;100.00;100613.39;435291;1256;99256;-40
2023/01/24 18:00:14;;;;;;;;;;;;;;;2.15;100.00;100604.11;435272;1256;111263;-39
2023/01/24 18:10:20;;;;;;;;;;;;;;;2.06;100.00;100602.30;435384;1256;107280;-40
2023/01/24 18:20:25;;;;;;;;;;;;;;;2.02;100.00;100608.14;435201;1252;99311;-40
2023/01/24 18:30:31;;;;;;;;;;;;;;;2.06;100.00;100606.42;435397;1256;110383;-41
2023/01/24 18:40:36;;;;;;;;;;;;;;;2.15;100.00;100603.14;435237;1256;107901;-39
2023/01/24 18:50:42;;;;;;;;;;;;;;;2.17;100.00;100608.52;435253;1256;97992;-40
2023/01/24 19:00:48;;;;;;;;;;;;;;;2.21;100.00;100607.86;435240;1252;107041;-40
2023/01/24 19:10:53;;;;;;;;;;;;;;;2.25;100.00;100609.04;435027;1256;97983;-38
2023/01/24 19:21:03;;;;;;;;;;;;;;;2.29;100.00;100613.20;435301;1256;110964;-39
2023/01/24 19:31:09;;;;;;;;;;;;;;;2.32;100.00;100611.57;437090;1256;108724;-40
2023/01/24 19:41:14;;;;;;;;;;;;;;;2.22;100.00;100597.98;435766;1255;98826;-39
2023/01/24 19:51:20;;;;;;;;;;;;;;;2.10;100.00;100585.54;436866;1256;111463;-40
2023/01/24 20:01:26;;;;;;;;;;;;;;;2.00;100.00;100586.40;435377;1256;106796;-39
2023/01/24 20:11:33;;;;;;;;;;;;;;;2.03;100.00;100580.29;435195;1256;98019;-40
2023/01/24 20:21:39;;;;;;;;;;;;;;;2.16;100.00;100573.05;435219;1256;113155;-38
2023/01/24 20:31:45;;;;;;;;;;;;;;;2.26;100.00;100567.71;435182;1256;108079;-40
2023/01/24 20:41:52;;;;;;;;;;;;;;;2.22;100.00;100568.08;435220;1253;99224;-40
2023/01/24 20:51:57;;;;;;;;;;;;;;;2.21;100.00;100571.79;435187;1256;108309;-40
2023/01/24 21:02:03;;;;;;;;;;;;;;;2.20;100.00;100577.83;435143;1256;98849;-40
2023/01/24 21:12:07;;;;;;;;;;;;;;;2.16;100.00;100584.38;435060;1256;112194;-40
2023/01/24 21:22:13;;;;;;;;;;;;;;;2.14;100.00;100586.10;435174;1256;109277;-40
2023/01/24 21:32:18;;;;;;;;;;;;;;;2.08;100.00;100593.56;435145;1256;99303;-41
2023/01/24 21:42:24;;;;;;;;;;;;;;;2.03;100.00;100595.70;435197;1256;107249;-40
2023/01/24 21:52:28;;;;;;;;;;;;;;;2.00;100.00;100595.67;435269;1256;99225;-40
2023/01/24 22:02:34;;;;;;;;;;;;;;;1.97;100.00;100585.99;435228;1252;111675;-40
2023/01/24 22:12:41;;;;;;;;;;;;;;;1.97;100.00;100577.62;435187;1256;108501;-40
2023/01/24 22:22:52;;;;;;;;;;;;;;;1.99;100.00;100578.20;435108;1256;99250;-39
2023/01/24 22:32:59;;;;;;;;;;;;;;;1.97;100.00;100585.45;435176;1256;107316;-39
2023/01/24 22:43:05;;;;;;;;;;;;;;;2.02;100.00;100578.27;435151;1256;98609;-39
2023/01/24 22:53:11;;;;;;;;;;;;;;;2.03;100.00;100574.85;435190;1256;111832;-38
2023/01/24 23:03:16;;;;;;;;;;;;;;;2.07;100.00;100568.98;435270;1256;108622;-39
2023/01/24 23:23:45;;;;;;;;;;;;;;;1.99;100.00;100558.50;435246;1256;107303;-39
2023/01/24 23:33:51;;;;;;;;;;;;;;;1.89;100.00;100549.95;435176;1256;99230;-40
2023/01/24 23:43:56;;;;;;;;;;;;;;;1.90;100.00;100535.94;435130;1256;111567;-39
2023/01/24 23:54:01;;;;;;;;;;;;;;;1.92;100.00;100525.69;435153;1256;108062;-41
